sensor_id;sensor_type;location;lat;lon;timestamp;P1;durP1;ratioP1;P2;durP2;ratioP2
18159;SDS011;9205;52.032;4.314;2022-09-09T00:02:17;5.47;;;2.83;;
18159;SDS011;9205;52.032;4.314;2022-09-09T00:04:49;8.13;;;2.93;;
18159;SDS011;9205;52.032;4.314;2022-09-09T00:07:30;4.67;;;2.40;;
18159;SDS011;9205;52.032;4.314;2022-09-09T00:10:13;5.47;;;2.60;;
18159;SDS011;9205;52.032;4.314;2022-09-09T00:12:51;5.10;;;2.60;;
18159;SDS011;9205;52.032;4.314;2022-09-09T00:15:28;3.67;;;2.60;;
18159;SDS011;9205;52.032;4.314;2022-09-09T00:18:07;5.80;;;2.70;;
18159;SDS011;9205;52.032;4.314;2022-09-09T00:20:47;4.83;;;3.13;;
18159;SDS011;9205;52.032;4.314;2022-09-09T00:23:24;5.07;;;2.87;;
18159;SDS011;9205;52.032;4.314;2022-09-09T00:26:01;3.73;;;2.60;;
18159;SDS011;9205;52.032;4.314;2022-09-09T00:28:36;3.80;;;2.63;;
18159;SDS011;9205;52.032;4.314;2022-09-09T00:31:13;5.17;;;3.13;;
18159;SDS011;9205;52.032;4.314;2022-09-09T00:33:47;4.23;;;2.80;;
18159;SDS011;9205;52.032;4.314;2022-09-09T00:36:17;7.33;;;3.30;;
18159;SDS011;9205;52.032;4.314;2022-09-09T00:38:51;7.37;;;3.37;;
18159;SDS011;9205;52.032;4.314;2022-09-09T00:41:26;7.53;;;3.53;;
18159;SDS011;9205;52.032;4.314;2022-09-09T00:44:13;5.20;;;3.60;;
18159;SDS011;9205;52.032;4.314;2022-09-09T00:46:58;6.77;;;3.83;;
18159;SDS011;9205;52.032;4.314;2022-09-09T00:49:39;6.97;;;4.17;;
18159;SDS011;9205;52.032;4.314;2022-09-09T00:52:27;5.57;;;3.80;;
18159;SDS011;9205;52.032;4.314;2022-09-09T00:55:07;7.90;;;4.10;;
18159;SDS011;9205;52.032;4.314;2022-09-09T00:57:46;8.80;;;4.13;;
18159;SDS011;9205;52.032;4.314;2022-09-09T01:00:20;4.93;;;3.57;;
18159;SDS011;9205;52.032;4.314;2022-09-09T01:02:54;9.33;;;4.13;;
18159;SDS011;9205;52.032;4.314;2022-09-09T01:05:38;6.67;;;3.80;;
18159;SDS011;9205;52.032;4.314;2022-09-09T01:08:16;6.53;;;3.77;;
18159;SDS011;9205;52.032;4.314;2022-09-09T01:11:04;6.53;;;3.80;;
18159;SDS011;9205;52.032;4.314;2022-09-09T01:13:41;6.37;;;3.70;;
18159;SDS011;9205;52.032;4.314;2022-09-09T01:16:14;6.00;;;3.23;;
18159;SDS011;9205;52.032;4.314;2022-09-09T01:18:44;6.70;;;3.53;;
18159;SDS011;9205;52.032;4.314;2022-09-09T01:21:20;4.83;;;2.80;;
18159;SDS011;9205;52.032;4.314;2022-09-09T01:24:05;5.90;;;2.80;;
18159;SDS011;9205;52.032;4.314;2022-09-09T01:27:10;4.93;;;2.50;;
18159;SDS011;9205;52.032;4.314;2022-09-09T01:29:39;4.33;;;2.33;;
18159;SDS011;9205;52.032;4.314;2022-09-09T01:35:08;3.87;;;2.10;;
18159;SDS011;9205;52.032;4.314;2022-09-09T01:37:44;2.50;;;1.80;;
18159;SDS011;9205;52.032;4.314;2022-09-09T01:40:11;4.87;;;2.40;;
18159;SDS011;9205;52.032;4.314;2022-09-09T01:42:40;2.93;;;2.00;;
18159;SDS011;9205;52.032;4.314;2022-09-09T01:45:08;2.90;;;1.70;;
18159;SDS011;9205;52.032;4.314;2022-09-09T01:47:36;3.53;;;1.90;;
18159;SDS011;9205;52.032;4.314;2022-09-09T01:50:16;3.23;;;1.50;;
18159;SDS011;9205;52.032;4.314;2022-09-09T01:52:44;3.77;;;1.80;;
18159;SDS011;9205;52.032;4.314;2022-09-09T01:55:19;4.13;;;1.80;;
18159;SDS011;9205;52.032;4.314;2022-09-09T01:58:01;4.00;;;1.80;;
18159;SDS011;9205;52.032;4.314;2022-09-09T02:00:54;2.80;;;1.80;;
18159;SDS011;9205;52.032;4.314;2022-09-09T02:03:32;2.13;;;1.47;;
18159;SDS011;9205;52.032;4.314;2022-09-09T02:06:19;2.70;;;1.57;;
18159;SDS011;9205;52.032;4.314;2022-09-09T02:09:04;3.47;;;1.53;;
18159;SDS011;9205;52.032;4.314;2022-09-09T02:11:34;3.40;;;1.70;;
18159;SDS011;9205;52.032;4.314;2022-09-09T02:14:14;4.33;;;1.40;;
18159;SDS011;9205;52.032;4.314;2022-09-09T02:16:50;2.00;;;1.50;;
18159;SDS011;9205;52.032;4.314;2022-09-09T02:19:32;2.17;;;1.30;;
18159;SDS011;9205;52.032;4.314;2022-09-09T02:22:20;3.23;;;1.37;;
18159;SDS011;9205;52.032;4.314;2022-09-09T02:24:52;2.20;;;1.20;;
18159;SDS011;9205;52.032;4.314;2022-09-09T02:27:28;1.60;;;1.20;;
18159;SDS011;9205;52.032;4.314;2022-09-09T02:29:57;1.57;;;1.20;;
18159;SDS011;9205;52.032;4.314;2022-09-09T02:32:38;3.73;;;0.97;;
18159;SDS011;9205;52.032;4.314;2022-09-09T02:35:13;3.30;;;1.20;;
18159;SDS011;9205;52.032;4.314;2022-09-09T02:37:45;1.07;;;0.83;;
18159;SDS011;9205;52.032;4.314;2022-09-09T02:40:13;7.07;;;1.20;;
18159;SDS011;9205;52.032;4.314;2022-09-09T02:42:46;3.03;;;1.10;;
18159;SDS011;9205;52.032;4.314;2022-09-09T02:45:18;1.50;;;1.00;;
18159;SDS011;9205;52.032;4.314;2022-09-09T02:47:50;1.77;;;1.20;;
18159;SDS011;9205;52.032;4.314;2022-09-09T02:50:29;2.57;;;1.27;;
18159;SDS011;9205;52.032;4.314;2022-09-09T02:53:05;2.73;;;1.33;;
18159;SDS011;9205;52.032;4.314;2022-09-09T02:55:43;1.30;;;0.90;;
18159;SDS011;9205;52.032;4.314;2022-09-09T02:58:18;2.63;;;1.03;;
18159;SDS011;9205;52.032;4.314;2022-09-09T03:00:56;3.93;;;1.57;;
18159;SDS011;9205;52.032;4.314;2022-09-09T03:03:26;3.30;;;1.30;;
18159;SDS011;9205;52.032;4.314;2022-09-09T03:05:59;4.13;;;1.13;;
18159;SDS011;9205;52.032;4.314;2022-09-09T03:08:27;1.97;;;0.97;;
18159;SDS011;9205;52.032;4.314;2022-09-09T03:10:57;1.13;;;0.93;;
18159;SDS011;9205;52.032;4.314;2022-09-09T03:13:29;3.20;;;1.20;;
18159;SDS011;9205;52.032;4.314;2022-09-09T03:15:58;2.40;;;1.10;;
18159;SDS011;9205;52.032;4.314;2022-09-09T03:18:26;2.00;;;0.97;;
18159;SDS011;9205;52.032;4.314;2022-09-09T03:20:54;4.73;;;1.10;;
18159;SDS011;9205;52.032;4.314;2022-09-09T03:23:22;2.00;;;1.03;;
18159;SDS011;9205;52.032;4.314;2022-09-09T03:25:50;1.83;;;1.00;;
18159;SDS011;9205;52.032;4.314;2022-09-09T03:28:26;1.93;;;0.90;;
18159;SDS011;9205;52.032;4.314;2022-09-09T03:31:01;2.10;;;1.23;;
18159;SDS011;9205;52.032;4.314;2022-09-09T03:33:34;2.17;;;1.23;;
18159;SDS011;9205;52.032;4.314;2022-09-09T03:36:02;1.80;;;1.10;;
18159;SDS011;9205;52.032;4.314;2022-09-09T03:38:30;2.13;;;1.20;;
18159;SDS011;9205;52.032;4.314;2022-09-09T03:40:58;1.83;;;1.20;;
18159;SDS011;9205;52.032;4.314;2022-09-09T03:43:27;2.13;;;1.10;;
18159;SDS011;9205;52.032;4.314;2022-09-09T03:45:55;2.30;;;1.00;;
18159;SDS011;9205;52.032;4.314;2022-09-09T03:48:25;1.70;;;1.00;;
18159;SDS011;9205;52.032;4.314;2022-09-09T03:50:54;1.77;;;1.20;;
18159;SDS011;9205;52.032;4.314;2022-09-09T03:53:23;1.43;;;1.00;;
18159;SDS011;9205;52.032;4.314;2022-09-09T03:55:52;3.20;;;1.30;;
18159;SDS011;9205;52.032;4.314;2022-09-09T03:58:24;3.30;;;1.30;;
18159;SDS011;9205;52.032;4.314;2022-09-09T04:00:55;2.90;;;1.00;;
18159;SDS011;9205;52.032;4.314;2022-09-09T04:03:27;2.53;;;1.10;;
18159;SDS011;9205;52.032;4.314;2022-09-09T04:05:56;1.50;;;1.03;;
18159;SDS011;9205;52.032;4.314;2022-09-09T04:08:28;1.63;;;1.00;;
18159;SDS011;9205;52.032;4.314;2022-09-09T04:10:58;1.57;;;1.00;;
18159;SDS011;9205;52.032;4.314;2022-09-09T04:13:31;1.80;;;1.03;;
18159;SDS011;9205;52.032;4.314;2022-09-09T04:16:00;2.57;;;1.00;;
18159;SDS011;9205;52.032;4.314;2022-09-09T04:18:31;1.20;;;0.90;;
18159;SDS011;9205;52.032;4.314;2022-09-09T04:21:00;1.93;;;1.10;;
18159;SDS011;9205;52.032;4.314;2022-09-09T04:23:31;2.10;;;1.00;;
18159;SDS011;9205;52.032;4.314;2022-09-09T04:25:59;5.07;;;1.00;;
18159;SDS011;9205;52.032;4.314;2022-09-09T04:28:32;2.57;;;1.03;;
18159;SDS011;9205;52.032;4.314;2022-09-09T04:31:04;4.60;;;1.10;;
18159;SDS011;9205;52.032;4.314;2022-09-09T04:33:34;1.73;;;0.90;;
18159;SDS011;9205;52.032;4.314;2022-09-09T04:36:02;2.50;;;0.93;;
18159;SDS011;9205;52.032;4.314;2022-09-09T04:38:31;1.20;;;1.00;;
18159;SDS011;9205;52.032;4.314;2022-09-09T04:40:58;3.33;;;1.07;;
18159;SDS011;9205;52.032;4.314;2022-09-09T04:43:26;1.47;;;0.83;;
18159;SDS011;9205;52.032;4.314;2022-09-09T04:45:53;3.33;;;1.00;;
18159;SDS011;9205;52.032;4.314;2022-09-09T04:48:23;2.50;;;1.10;;
18159;SDS011;9205;52.032;4.314;2022-09-09T04:50:55;2.80;;;1.00;;
18159;SDS011;9205;52.032;4.314;2022-09-09T04:53:24;1.80;;;1.10;;
18159;SDS011;9205;52.032;4.314;2022-09-09T04:55:52;1.90;;;1.07;;
18159;SDS011;9205;52.032;4.314;2022-09-09T04:58:28;1.20;;;1.10;;
18159;SDS011;9205;52.032;4.314;2022-09-09T05:01:02;2.33;;;1.23;;
18159;SDS011;9205;52.032;4.314;2022-09-09T05:03:31;2.40;;;1.10;;
18159;SDS011;9205;52.032;4.314;2022-09-09T05:06:04;2.30;;;1.17;;
18159;SDS011;9205;52.032;4.314;2022-09-09T05:08:35;2.47;;;1.17;;
18159;SDS011;9205;52.032;4.314;2022-09-09T05:11:04;2.00;;;1.10;;
18159;SDS011;9205;52.032;4.314;2022-09-09T05:13:40;3.60;;;1.03;;
18159;SDS011;9205;52.032;4.314;2022-09-09T05:16:07;3.13;;;1.43;;
18159;SDS011;9205;52.032;4.314;2022-09-09T05:18:36;2.40;;;1.50;;
18159;SDS011;9205;52.032;4.314;2022-09-09T05:21:06;2.50;;;1.50;;
18159;SDS011;9205;52.032;4.314;2022-09-09T05:23:34;2.33;;;1.50;;
18159;SDS011;9205;52.032;4.314;2022-09-09T05:26:02;5.97;;;1.70;;
18159;SDS011;9205;52.032;4.314;2022-09-09T05:28:33;7.60;;;2.03;;
18159;SDS011;9205;52.032;4.314;2022-09-09T05:31:02;2.03;;;1.60;;
18159;SDS011;9205;52.032;4.314;2022-09-09T05:33:33;4.77;;;1.80;;
18159;SDS011;9205;52.032;4.314;2022-09-09T05:36:04;2.37;;;1.30;;
18159;SDS011;9205;52.032;4.314;2022-09-09T05:38:36;2.17;;;1.27;;
18159;SDS011;9205;52.032;4.314;2022-09-09T05:41:05;2.40;;;1.43;;
18159;SDS011;9205;52.032;4.314;2022-09-09T05:43:33;3.90;;;1.63;;
18159;SDS011;9205;52.032;4.314;2022-09-09T05:46:02;2.97;;;1.43;;
18159;SDS011;9205;52.032;4.314;2022-09-09T05:48:34;3.03;;;1.37;;
18159;SDS011;9205;52.032;4.314;2022-09-09T05:51:03;2.67;;;1.30;;
18159;SDS011;9205;52.032;4.314;2022-09-09T05:53:34;2.23;;;1.50;;
18159;SDS011;9205;52.032;4.314;2022-09-09T05:56:03;4.03;;;1.30;;
18159;SDS011;9205;52.032;4.314;2022-09-09T05:58:34;4.13;;;1.37;;
18159;SDS011;9205;52.032;4.314;2022-09-09T06:01:05;4.40;;;1.67;;
18159;SDS011;9205;52.032;4.314;2022-09-09T06:03:35;3.50;;;1.30;;
18159;SDS011;9205;52.032;4.314;2022-09-09T06:06:05;2.37;;;1.37;;
18159;SDS011;9205;52.032;4.314;2022-09-09T06:08:36;3.80;;;1.40;;
18159;SDS011;9205;52.032;4.314;2022-09-09T06:11:06;3.47;;;1.53;;
18159;SDS011;9205;52.032;4.314;2022-09-09T06:13:40;3.17;;;1.50;;
18159;SDS011;9205;52.032;4.314;2022-09-09T06:16:08;4.43;;;1.67;;
18159;SDS011;9205;52.032;4.314;2022-09-09T06:18:38;8.97;;;1.60;;
18159;SDS011;9205;52.032;4.314;2022-09-09T06:21:08;4.50;;;2.10;;
18159;SDS011;9205;52.032;4.314;2022-09-09T06:23:41;3.33;;;2.00;;
18159;SDS011;9205;52.032;4.314;2022-09-09T06:26:11;3.80;;;2.13;;
18159;SDS011;9205;52.032;4.314;2022-09-09T06:28:42;3.97;;;1.80;;
18159;SDS011;9205;52.032;4.314;2022-09-09T06:31:11;3.70;;;1.80;;
18159;SDS011;9205;52.032;4.314;2022-09-09T06:33:42;7.70;;;2.80;;
18159;SDS011;9205;52.032;4.314;2022-09-09T06:36:13;5.17;;;1.90;;
18159;SDS011;9205;52.032;4.314;2022-09-09T06:38:43;4.87;;;2.10;;
18159;SDS011;9205;52.032;4.314;2022-09-09T06:41:13;6.27;;;2.00;;
18159;SDS011;9205;52.032;4.314;2022-09-09T06:43:44;4.80;;;2.20;;
18159;SDS011;9205;52.032;4.314;2022-09-09T06:46:12;9.40;;;2.57;;
18159;SDS011;9205;52.032;4.314;2022-09-09T06:48:42;4.90;;;2.20;;
18159;SDS011;9205;52.032;4.314;2022-09-09T06:51:13;5.20;;;2.00;;
18159;SDS011;9205;52.032;4.314;2022-09-09T06:53:44;6.23;;;2.67;;
18159;SDS011;9205;52.032;4.314;2022-09-09T06:56:17;4.07;;;2.10;;
18159;SDS011;9205;52.032;4.314;2022-09-09T06:58:49;5.53;;;2.53;;
18159;SDS011;9205;52.032;4.314;2022-09-09T07:01:24;6.17;;;2.27;;
18159;SDS011;9205;52.032;4.314;2022-09-09T07:03:58;2.83;;;2.00;;
18159;SDS011;9205;52.032;4.314;2022-09-09T07:06:35;3.87;;;2.07;;
18159;SDS011;9205;52.032;4.314;2022-09-09T07:09:07;3.97;;;2.30;;
18159;SDS011;9205;52.032;4.314;2022-09-09T07:11:39;6.27;;;2.33;;
18159;SDS011;9205;52.032;4.314;2022-09-09T07:14:10;2.83;;;2.03;;
18159;SDS011;9205;52.032;4.314;2022-09-09T07:16:40;6.27;;;2.20;;
18159;SDS011;9205;52.032;4.314;2022-09-09T07:19:08;5.23;;;2.33;;
18159;SDS011;9205;52.032;4.314;2022-09-09T07:21:38;7.67;;;2.40;;
18159;SDS011;9205;52.032;4.314;2022-09-09T07:24:06;4.37;;;2.33;;
18159;SDS011;9205;52.032;4.314;2022-09-09T07:26:36;8.20;;;2.73;;
18159;SDS011;9205;52.032;4.314;2022-09-09T07:29:05;5.17;;;2.33;;
18159;SDS011;9205;52.032;4.314;2022-09-09T07:31:34;5.60;;;2.23;;
18159;SDS011;9205;52.032;4.314;2022-09-09T07:34:07;5.07;;;2.53;;
18159;SDS011;9205;52.032;4.314;2022-09-09T07:36:35;2.57;;;2.10;;
18159;SDS011;9205;52.032;4.314;2022-09-09T07:39:08;4.10;;;2.20;;
18159;SDS011;9205;52.032;4.314;2022-09-09T07:41:43;4.00;;;2.40;;
18159;SDS011;9205;52.032;4.314;2022-09-09T07:44:15;4.80;;;2.63;;
18159;SDS011;9205;52.032;4.314;2022-09-09T07:46:48;3.63;;;2.40;;
18159;SDS011;9205;52.032;4.314;2022-09-09T07:49:20;6.77;;;2.53;;
18159;SDS011;9205;52.032;4.314;2022-09-09T07:51:49;5.57;;;2.60;;
18159;SDS011;9205;52.032;4.314;2022-09-09T07:54:18;3.50;;;2.30;;
18159;SDS011;9205;52.032;4.314;2022-09-09T07:56:49;3.20;;;2.00;;
18159;SDS011;9205;52.032;4.314;2022-09-09T07:59:18;5.83;;;2.13;;
18159;SDS011;9205;52.032;4.314;2022-09-09T08:01:48;5.13;;;2.27;;
18159;SDS011;9205;52.032;4.314;2022-09-09T08:04:22;4.37;;;2.10;;
18159;SDS011;9205;52.032;4.314;2022-09-09T08:06:53;3.47;;;1.90;;
18159;SDS011;9205;52.032;4.314;2022-09-09T08:09:24;3.27;;;1.93;;
18159;SDS011;9205;52.032;4.314;2022-09-09T08:11:57;2.63;;;1.67;;
18159;SDS011;9205;52.032;4.314;2022-09-09T08:14:25;4.47;;;1.67;;
18159;SDS011;9205;52.032;4.314;2022-09-09T08:16:54;3.77;;;2.00;;
18159;SDS011;9205;52.032;4.314;2022-09-09T08:19:24;4.03;;;2.00;;
18159;SDS011;9205;52.032;4.314;2022-09-09T08:21:53;2.67;;;1.80;;
18159;SDS011;9205;52.032;4.314;2022-09-09T08:24:20;4.23;;;1.83;;
18159;SDS011;9205;52.032;4.314;2022-09-09T08:26:49;4.17;;;1.90;;
18159;SDS011;9205;52.032;4.314;2022-09-09T08:29:20;4.00;;;1.63;;
18159;SDS011;9205;52.032;4.314;2022-09-09T08:31:48;3.43;;;1.80;;
18159;SDS011;9205;52.032;4.314;2022-09-09T08:34:20;3.80;;;1.57;;
18159;SDS011;9205;52.032;4.314;2022-09-09T08:36:49;5.37;;;1.83;;
18159;SDS011;9205;52.032;4.314;2022-09-09T08:39:22;3.53;;;1.57;;
18159;SDS011;9205;52.032;4.314;2022-09-09T08:41:58;3.43;;;1.73;;
18159;SDS011;9205;52.032;4.314;2022-09-09T08:44:49;4.20;;;1.90;;
18159;SDS011;9205;52.032;4.314;2022-09-09T08:47:38;3.23;;;1.67;;
18159;SDS011;9205;52.032;4.314;2022-09-09T08:50:19;4.93;;;1.70;;
18159;SDS011;9205;52.032;4.314;2022-09-09T08:53:00;2.53;;;1.60;;
18159;SDS011;9205;52.032;4.314;2022-09-09T08:55:41;2.13;;;1.90;;
18159;SDS011;9205;52.032;4.314;2022-09-09T08:59:03;5.80;;;1.70;;
18159;SDS011;9205;52.032;4.314;2022-09-09T09:01:42;4.63;;;2.00;;
18159;SDS011;9205;52.032;4.314;2022-09-09T09:04:38;3.87;;;1.80;;
18159;SDS011;9205;52.032;4.314;2022-09-09T09:07:29;2.47;;;1.77;;
18159;SDS011;9205;52.032;4.314;2022-09-09T09:10:12;4.20;;;2.03;;
18159;SDS011;9205;52.032;4.314;2022-09-09T09:12:53;2.07;;;1.80;;
18159;SDS011;9205;52.032;4.314;2022-09-09T09:15:23;4.50;;;1.80;;
18159;SDS011;9205;52.032;4.314;2022-09-09T09:17:56;4.40;;;1.57;;
18159;SDS011;9205;52.032;4.314;2022-09-09T09:20:27;3.23;;;1.90;;
18159;SDS011;9205;52.032;4.314;2022-09-09T09:23:09;3.67;;;1.77;;
18159;SDS011;9205;52.032;4.314;2022-09-09T09:25:47;2.80;;;2.00;;
18159;SDS011;9205;52.032;4.314;2022-09-09T09:28:17;2.30;;;1.80;;
18159;SDS011;9205;52.032;4.314;2022-09-09T09:30:54;4.33;;;1.93;;
18159;SDS011;9205;52.032;4.314;2022-09-09T09:33:31;3.80;;;1.70;;
18159;SDS011;9205;52.032;4.314;2022-09-09T09:36:11;1.90;;;1.50;;
18159;SDS011;9205;52.032;4.314;2022-09-09T09:38:50;5.77;;;1.90;;
18159;SDS011;9205;52.032;4.314;2022-09-09T09:41:29;1.57;;;1.23;;
18159;SDS011;9205;52.032;4.314;2022-09-09T09:44:04;2.03;;;1.50;;
18159;SDS011;9205;52.032;4.314;2022-09-09T09:46:34;2.37;;;1.70;;
18159;SDS011;9205;52.032;4.314;2022-09-09T09:49:09;3.80;;;1.53;;
18159;SDS011;9205;52.032;4.314;2022-09-09T09:51:39;3.90;;;1.50;;
18159;SDS011;9205;52.032;4.314;2022-09-09T09:54:14;2.37;;;1.50;;
18159;SDS011;9205;52.032;4.314;2022-09-09T09:56:54;1.43;;;1.33;;
18159;SDS011;9205;52.032;4.314;2022-09-09T09:59:33;2.33;;;1.53;;
18159;SDS011;9205;52.032;4.314;2022-09-09T10:02:17;4.17;;;1.63;;
18159;SDS011;9205;52.032;4.314;2022-09-09T10:05:01;3.23;;;1.40;;
18159;SDS011;9205;52.032;4.314;2022-09-09T10:07:32;3.00;;;1.30;;
18159;SDS011;9205;52.032;4.314;2022-09-09T10:10:02;2.23;;;1.23;;
18159;SDS011;9205;52.032;4.314;2022-09-09T10:12:35;3.57;;;1.70;;
18159;SDS011;9205;52.032;4.314;2022-09-09T10:15:21;2.17;;;1.40;;
18159;SDS011;9205;52.032;4.314;2022-09-09T10:17:59;2.20;;;1.73;;
18159;SDS011;9205;52.032;4.314;2022-09-09T10:20:43;2.90;;;1.87;;
18159;SDS011;9205;52.032;4.314;2022-09-09T10:23:28;2.37;;;1.67;;
18159;SDS011;9205;52.032;4.314;2022-09-09T10:26:27;2.00;;;1.80;;
18159;SDS011;9205;52.032;4.314;2022-09-09T10:29:08;2.20;;;1.70;;
18159;SDS011;9205;52.032;4.314;2022-09-09T10:32:02;3.73;;;1.87;;
18159;SDS011;9205;52.032;4.314;2022-09-09T10:34:55;2.17;;;1.90;;
18159;SDS011;9205;52.032;4.314;2022-09-09T10:37:29;4.73;;;2.00;;
18159;SDS011;9205;52.032;4.314;2022-09-09T10:40:15;3.20;;;1.70;;
18159;SDS011;9205;52.032;4.314;2022-09-09T10:42:56;4.10;;;1.80;;
18159;SDS011;9205;52.032;4.314;2022-09-09T10:45:39;2.43;;;1.80;;
18159;SDS011;9205;52.032;4.314;2022-09-09T10:48:34;3.50;;;2.00;;
18159;SDS011;9205;52.032;4.314;2022-09-09T10:51:31;2.27;;;1.80;;
18159;SDS011;9205;52.032;4.314;2022-09-09T10:54:14;4.93;;;1.90;;
18159;SDS011;9205;52.032;4.314;2022-09-09T10:57:00;3.33;;;2.27;;
18159;SDS011;9205;52.032;4.314;2022-09-09T10:59:35;2.63;;;2.10;;
18159;SDS011;9205;52.032;4.314;2022-09-09T11:02:11;4.03;;;2.17;;
18159;SDS011;9205;52.032;4.314;2022-09-09T11:04:48;6.40;;;2.23;;
18159;SDS011;9205;52.032;4.314;2022-09-09T11:07:22;2.60;;;1.67;;
18159;SDS011;9205;52.032;4.314;2022-09-09T11:09:59;3.53;;;2.23;;
18159;SDS011;9205;52.032;4.314;2022-09-09T11:12:33;3.60;;;2.20;;
18159;SDS011;9205;52.032;4.314;2022-09-09T11:15:06;8.87;;;2.27;;
18159;SDS011;9205;52.032;4.314;2022-09-09T11:17:42;3.97;;;1.83;;
18159;SDS011;9205;52.032;4.314;2022-09-09T11:20:15;2.37;;;1.83;;
18159;SDS011;9205;52.032;4.314;2022-09-09T11:22:47;2.33;;;1.70;;
18159;SDS011;9205;52.032;4.314;2022-09-09T11:25:21;2.27;;;1.87;;
18159;SDS011;9205;52.032;4.314;2022-09-09T11:28:05;3.40;;;1.83;;
18159;SDS011;9205;52.032;4.314;2022-09-09T11:31:11;5.47;;;1.97;;
18159;SDS011;9205;52.032;4.314;2022-09-09T11:33:58;3.97;;;1.90;;
18159;SDS011;9205;52.032;4.314;2022-09-09T11:40:07;2.90;;;1.90;;
18159;SDS011;9205;52.032;4.314;2022-09-09T11:42:48;3.70;;;1.87;;
18159;SDS011;9205;52.032;4.314;2022-09-09T11:45:27;2.07;;;1.70;;
18159;SDS011;9205;52.032;4.314;2022-09-09T11:47:55;3.30;;;1.80;;
18159;SDS011;9205;52.032;4.314;2022-09-09T11:50:29;2.03;;;1.53;;
18159;SDS011;9205;52.032;4.314;2022-09-09T11:53:15;4.87;;;1.60;;
18159;SDS011;9205;52.032;4.314;2022-09-09T11:55:48;2.17;;;1.37;;
18159;SDS011;9205;52.032;4.314;2022-09-09T11:58:43;2.67;;;1.30;;
18159;SDS011;9205;52.032;4.314;2022-09-09T12:01:26;1.40;;;1.30;;
18159;SDS011;9205;52.032;4.314;2022-09-09T12:04:21;4.50;;;1.30;;
18159;SDS011;9205;52.032;4.314;2022-09-09T12:07:05;3.00;;;1.47;;
18159;SDS011;9205;52.032;4.314;2022-09-09T12:10:02;1.80;;;1.40;;
18159;SDS011;9205;52.032;4.314;2022-09-09T12:12:45;2.13;;;1.40;;
18159;SDS011;9205;52.032;4.314;2022-09-09T12:15:23;2.10;;;1.30;;
18159;SDS011;9205;52.032;4.314;2022-09-09T12:17:55;2.30;;;1.40;;
18159;SDS011;9205;52.032;4.314;2022-09-09T12:20:31;1.70;;;1.27;;
18159;SDS011;9205;52.032;4.314;2022-09-09T12:23:08;4.10;;;1.37;;
18159;SDS011;9205;52.032;4.314;2022-09-09T12:25:54;2.13;;;1.53;;
18159;SDS011;9205;52.032;4.314;2022-09-09T12:28:39;3.30;;;1.60;;
18159;SDS011;9205;52.032;4.314;2022-09-09T12:31:25;3.50;;;1.60;;
18159;SDS011;9205;52.032;4.314;2022-09-09T12:34:08;2.33;;;1.40;;
18159;SDS011;9205;52.032;4.314;2022-09-09T12:36:41;1.40;;;1.30;;
18159;SDS011;9205;52.032;4.314;2022-09-09T12:39:14;1.53;;;1.20;;
18159;SDS011;9205;52.032;4.314;2022-09-09T12:41:53;3.37;;;1.27;;
18159;SDS011;9205;52.032;4.314;2022-09-09T12:44:22;2.47;;;1.30;;
18159;SDS011;9205;52.032;4.314;2022-09-09T12:46:50;1.40;;;1.30;;
18159;SDS011;9205;52.032;4.314;2022-09-09T12:49:26;2.70;;;1.50;;
18159;SDS011;9205;52.032;4.314;2022-09-09T12:52:00;1.30;;;1.20;;
18159;SDS011;9205;52.032;4.314;2022-09-09T12:54:35;1.87;;;1.17;;
18159;SDS011;9205;52.032;4.314;2022-09-09T12:57:05;2.13;;;1.07;;
18159;SDS011;9205;52.032;4.314;2022-09-09T12:59:38;1.73;;;1.20;;
18159;SDS011;9205;52.032;4.314;2022-09-09T13:02:14;1.10;;;1.00;;
18159;SDS011;9205;52.032;4.314;2022-09-09T13:04:47;1.23;;;1.00;;
18159;SDS011;9205;52.032;4.314;2022-09-09T13:07:15;0.87;;;0.87;;
18159;SDS011;9205;52.032;4.314;2022-09-09T13:09:44;2.17;;;0.80;;
18159;SDS011;9205;52.032;4.314;2022-09-09T13:12:16;1.47;;;0.83;;
18159;SDS011;9205;52.032;4.314;2022-09-09T13:14:48;2.40;;;1.00;;
18159;SDS011;9205;52.032;4.314;2022-09-09T13:17:20;1.80;;;0.93;;
18159;SDS011;9205;52.032;4.314;2022-09-09T13:19:50;2.07;;;1.00;;
18159;SDS011;9205;52.032;4.314;2022-09-09T13:22:21;2.77;;;0.90;;
18159;SDS011;9205;52.032;4.314;2022-09-09T13:25:02;2.00;;;1.33;;
18159;SDS011;9205;52.032;4.314;2022-09-09T13:27:34;0.60;;;0.60;;
18159;SDS011;9205;52.032;4.314;2022-09-09T13:30:19;0.80;;;0.60;;
18159;SDS011;9205;52.032;4.314;2022-09-09T13:32:59;0.83;;;0.60;;
18159;SDS011;9205;52.032;4.314;2022-09-09T13:35:46;1.40;;;0.60;;
18159;SDS011;9205;52.032;4.314;2022-09-09T13:38:16;0.40;;;0.40;;
18159;SDS011;9205;52.032;4.314;2022-09-09T13:40:53;1.20;;;0.60;;
18159;SDS011;9205;52.032;4.314;2022-09-09T13:43:25;0.73;;;0.50;;
18159;SDS011;9205;52.032;4.314;2022-09-09T13:45:55;2.40;;;0.60;;
18159;SDS011;9205;52.032;4.314;2022-09-09T13:48:25;1.13;;;0.60;;
18159;SDS011;9205;52.032;4.314;2022-09-09T13:50:59;2.00;;;0.73;;
18159;SDS011;9205;52.032;4.314;2022-09-09T13:53:30;0.67;;;0.63;;
18159;SDS011;9205;52.032;4.314;2022-09-09T13:55:58;2.03;;;0.70;;
18159;SDS011;9205;52.032;4.314;2022-09-09T13:58:27;1.00;;;0.83;;
18159;SDS011;9205;52.032;4.314;2022-09-09T14:00:55;0.93;;;0.87;;
18159;SDS011;9205;52.032;4.314;2022-09-09T14:03:22;1.50;;;0.83;;
18159;SDS011;9205;52.032;4.314;2022-09-09T14:05:49;1.60;;;0.90;;
18159;SDS011;9205;52.032;4.314;2022-09-09T14:08:21;1.10;;;0.90;;
18159;SDS011;9205;52.032;4.314;2022-09-09T14:10:53;2.23;;;1.03;;
18159;SDS011;9205;52.032;4.314;2022-09-09T14:13:22;1.73;;;0.80;;
18159;SDS011;9205;52.032;4.314;2022-09-09T14:15:51;2.03;;;1.03;;
18159;SDS011;9205;52.032;4.314;2022-09-09T14:18:18;2.80;;;0.90;;
18159;SDS011;9205;52.032;4.314;2022-09-09T14:20:47;1.10;;;0.90;;
18159;SDS011;9205;52.032;4.314;2022-09-09T14:23:15;5.03;;;1.13;;
18159;SDS011;9205;52.032;4.314;2022-09-09T14:25:43;4.23;;;1.00;;
18159;SDS011;9205;52.032;4.314;2022-09-09T14:28:12;1.27;;;0.80;;
18159;SDS011;9205;52.032;4.314;2022-09-09T14:30:40;1.60;;;1.00;;
18159;SDS011;9205;52.032;4.314;2022-09-09T14:33:12;3.80;;;0.80;;
18159;SDS011;9205;52.032;4.314;2022-09-09T14:35:42;2.00;;;1.00;;
18159;SDS011;9205;52.032;4.314;2022-09-09T14:38:10;2.80;;;1.00;;
18159;SDS011;9205;52.032;4.314;2022-09-09T14:40:37;1.67;;;0.80;;
18159;SDS011;9205;52.032;4.314;2022-09-09T14:43:05;2.20;;;0.80;;
18159;SDS011;9205;52.032;4.314;2022-09-09T14:45:32;4.23;;;1.87;;
18159;SDS011;9205;52.032;4.314;2022-09-09T14:48:03;2.33;;;1.00;;
18159;SDS011;9205;52.032;4.314;2022-09-09T14:50:31;1.10;;;0.93;;
18159;SDS011;9205;52.032;4.314;2022-09-09T14:52:59;1.77;;;1.00;;
18159;SDS011;9205;52.032;4.314;2022-09-09T14:55:27;3.27;;;1.27;;
18159;SDS011;9205;52.032;4.314;2022-09-09T14:57:54;3.53;;;1.00;;
18159;SDS011;9205;52.032;4.314;2022-09-09T15:00:21;3.63;;;1.30;;
18159;SDS011;9205;52.032;4.314;2022-09-09T15:02:51;1.10;;;0.90;;
18159;SDS011;9205;52.032;4.314;2022-09-09T15:05:19;2.90;;;0.83;;
18159;SDS011;9205;52.032;4.314;2022-09-09T15:07:47;3.77;;;1.20;;
18159;SDS011;9205;52.032;4.314;2022-09-09T15:10:15;2.40;;;1.00;;
18159;SDS011;9205;52.032;4.314;2022-09-09T15:12:43;2.43;;;1.10;;
18159;SDS011;9205;52.032;4.314;2022-09-09T15:15:10;4.43;;;1.00;;
18159;SDS011;9205;52.032;4.314;2022-09-09T15:17:38;1.17;;;0.90;;
18159;SDS011;9205;52.032;4.314;2022-09-09T15:20:06;3.80;;;1.10;;
18159;SDS011;9205;52.032;4.314;2022-09-09T15:22:34;1.23;;;0.90;;
18159;SDS011;9205;52.032;4.314;2022-09-09T15:25:05;2.70;;;1.17;;
18159;SDS011;9205;52.032;4.314;2022-09-09T15:27:33;2.73;;;0.90;;
18159;SDS011;9205;52.032;4.314;2022-09-09T15:30:00;2.60;;;0.90;;
18159;SDS011;9205;52.032;4.314;2022-09-09T15:32:27;4.07;;;1.40;;
18159;SDS011;9205;52.032;4.314;2022-09-09T15:34:55;1.70;;;1.03;;
18159;SDS011;9205;52.032;4.314;2022-09-09T15:37:22;1.67;;;0.90;;
18159;SDS011;9205;52.032;4.314;2022-09-09T15:39:49;1.03;;;0.93;;
18159;SDS011;9205;52.032;4.314;2022-09-09T15:42:18;1.23;;;1.00;;
18159;SDS011;9205;52.032;4.314;2022-09-09T15:44:45;1.77;;;1.00;;
18159;SDS011;9205;52.032;4.314;2022-09-09T15:47:12;2.57;;;1.33;;
18159;SDS011;9205;52.032;4.314;2022-09-09T15:49:40;2.23;;;1.30;;